createdAt,value
2022-12-08T00:01:34.077Z,79.78
2022-12-08T00:04:04.401Z,79.90
2022-12-08T00:06:59.622Z,79.82
2022-12-08T00:09:39.395Z,80.02
2022-12-08T00:12:15.523Z,79.84
2022-12-08T00:14:46.508Z,79.75
2022-12-08T00:17:16.483Z,79.65
2022-12-08T00:19:45.465Z,79.89
2022-12-08T00:22:14.902Z,79.75
2022-12-08T00:24:45.724Z,79.53
2022-12-08T00:27:16.175Z,79.31
2022-12-08T00:29:45.631Z,79.45
2022-12-08T00:32:13.960Z,79.29
2022-12-08T00:34:42.207Z,78.96
2022-12-08T00:37:10.444Z,79.02
2022-12-08T00:39:38.451Z,79.26
2022-12-08T00:42:12.142Z,79.63
2022-12-08T00:44:41.632Z,80.12
2022-12-08T00:47:10.233Z,79.33
2022-12-08T00:49:38.618Z,80.63
2022-12-08T00:52:07.104Z,81.57
2022-12-08T00:54:35.585Z,81.64
2022-12-08T00:57:04.164Z,81.77
2022-12-08T00:59:32.639Z,81.64
2022-12-08T01:02:02.043Z,81.37
2022-12-08T01:04:30.048Z,80.97
2022-12-08T01:06:58.088Z,80.84
2022-12-08T01:09:26.130Z,80.57
2022-12-08T01:11:54.138Z,80.31
2022-12-08T01:14:22.530Z,80.00
2022-12-08T01:16:50.673Z,79.79
2022-12-08T01:19:18.988Z,79.99
2022-12-08T01:21:47.662Z,80.32
2022-12-08T01:24:21.151Z,80.55
2022-12-08T01:26:50.545Z,80.47
2022-12-08T01:29:19.093Z,80.26
2022-12-08T01:31:47.119Z,80.09
2022-12-08T01:34:15.124Z,80.07
2022-12-08T01:36:44.603Z,80.23
2022-12-08T01:39:17.882Z,80.63
2022-12-08T01:41:47.782Z,80.84
2022-12-08T01:44:15.752Z,81.09
2022-12-08T01:46:46.232Z,81.18
2022-12-08T01:49:26.539Z,81.43
2022-12-08T01:52:00.604Z,81.30
2022-12-08T01:54:34.253Z,81.31
2022-12-08T01:57:12.702Z,81.72
2022-12-08T01:59:50.270Z,82.06
2022-12-08T02:02:18.480Z,82.41
2022-12-08T02:04:46.619Z,82.55
2022-12-08T02:07:16.539Z,82.66
2022-12-08T02:09:45.404Z,82.78
2022-12-08T02:12:13.744Z,83.00
2022-12-08T02:14:41.978Z,83.45
2022-12-08T02:17:36.469Z,83.65
2022-12-08T02:20:19.731Z,83.39
2022-12-08T02:22:54.842Z,83.04
2022-12-08T02:25:44.620Z,82.52
2022-12-08T02:29:01.434Z,82.78
2022-12-08T02:32:07.495Z,83.14
2022-12-08T02:34:46.214Z,83.44
2022-12-08T02:37:29.482Z,83.34
2022-12-08T02:40:16.663Z,83.11
2022-12-08T02:42:51.291Z,82.96
2022-12-08T02:45:26.631Z,82.74
2022-12-08T02:47:55.497Z,82.58
2022-12-08T02:50:24.381Z,82.53
2022-12-08T02:52:52.848Z,82.39
2022-12-08T02:55:27.786Z,82.50
2022-12-08T02:58:35.558Z,82.34
2022-12-08T03:01:25.122Z,82.00
2022-12-08T03:04:17.077Z,81.74
2022-12-08T03:06:55.766Z,81.64
2022-12-08T03:09:38.726Z,81.34
2022-12-08T03:12:34.233Z,81.35
2022-12-08T03:15:11.117Z,81.40
2022-12-08T03:17:51.511Z,81.63
2022-12-08T03:20:23.541Z,81.99
2022-12-08T03:22:56.343Z,82.25
2022-12-08T03:25:27.014Z,82.48
2022-12-08T03:27:55.128Z,82.67
2022-12-08T03:30:23.509Z,82.72
2022-12-08T03:33:09.713Z,82.69
2022-12-08T03:35:40.807Z,82.59
2022-12-08T03:38:15.737Z,82.77
2022-12-08T03:41:04.948Z,82.83
2022-12-08T03:43:33.438Z,83.03
2022-12-08T03:46:01.588Z,83.11
2022-12-08T03:48:29.978Z,83.13
2022-12-08T03:50:58.253Z,82.83
2022-12-08T03:53:26.638Z,82.45
2022-12-08T03:55:55.014Z,82.38
2022-12-08T03:58:23.081Z,82.29
2022-12-08T04:00:51.160Z,82.28
2022-12-08T04:03:19.219Z,82.07
2022-12-08T04:05:47.448Z,81.94
2022-12-08T04:08:15.601Z,81.72
2022-12-08T04:10:44.162Z,81.63
2022-12-08T04:13:12.338Z,81.38
2022-12-08T04:15:44.556Z,81.26
2022-12-08T04:18:13.268Z,80.98
2022-12-08T04:20:45.495Z,80.69
2022-12-08T04:23:13.629Z,80.36
2022-12-08T04:25:41.905Z,80.27
2022-12-08T04:28:10.082Z,80.34
2022-12-08T04:30:38.101Z,80.32
2022-12-08T04:33:06.324Z,80.24
2022-12-08T04:35:34.398Z,80.22
2022-12-08T04:38:02.989Z,80.15
2022-12-08T04:40:31.260Z,80.03
2022-12-08T04:42:59.548Z,80.01
2022-12-08T04:45:27.709Z,80.08
2022-12-08T04:47:55.896Z,80.10
2022-12-08T04:50:24.679Z,79.97
2022-12-08T04:52:53.377Z,80.10
2022-12-08T04:55:21.952Z,80.08
2022-12-08T04:57:50.517Z,80.04
2022-12-08T05:00:19.028Z,80.01
2022-12-08T05:02:47.131Z,80.15
2022-12-08T05:05:15.371Z,80.25
2022-12-08T05:07:43.587Z,80.21
2022-12-08T05:10:11.721Z,80.41
2022-12-08T05:12:39.800Z,80.29
2022-12-08T05:15:08.486Z,80.38
2022-12-08T05:17:36.549Z,80.33
2022-12-08T05:20:07.752Z,80.37
2022-12-08T05:22:35.773Z,80.47
2022-12-08T05:25:04.150Z,80.50
2022-12-08T05:27:32.314Z,80.42
2022-12-08T05:30:00.397Z,80.48
2022-12-08T05:32:28.670Z,80.54
2022-12-08T05:34:56.736Z,80.48
2022-12-08T05:37:24.917Z,80.50
2022-12-08T05:39:52.942Z,80.68
2022-12-08T05:42:24.735Z,80.81
2022-12-08T05:44:53.537Z,80.83
2022-12-08T05:47:21.813Z,80.89
2022-12-08T05:49:49.993Z,80.95
2022-12-08T05:52:20.145Z,80.97
2022-12-08T05:54:48.486Z,80.98
2022-12-08T05:57:16.993Z,80.90
2022-12-08T05:59:45.449Z,80.67
2022-12-08T06:02:14.001Z,80.41
2022-12-08T06:04:42.507Z,80.26
2022-12-08T06:07:15.927Z,80.37
2022-12-08T06:09:44.428Z,80.37
2022-12-08T06:12:12.704Z,80.35
2022-12-08T06:14:40.949Z,80.23
2022-12-08T06:17:08.956Z,80.05
2022-12-08T06:19:36.921Z,80.13
2022-12-08T06:22:05.539Z,80.15
2022-12-08T06:24:33.763Z,80.25
2022-12-08T06:27:01.816Z,80.48
2022-12-08T06:29:29.808Z,80.66
2022-12-08T06:31:57.928Z,80.96
2022-12-08T06:34:26.230Z,80.93
2022-12-08T06:36:54.227Z,81.02
2022-12-08T06:39:22.454Z,80.99
2022-12-08T06:42:09.304Z,80.98
2022-12-08T06:44:37.479Z,81.16
2022-12-08T06:47:05.858Z,81.19
2022-12-08T06:49:33.829Z,81.31
2022-12-08T06:52:01.953Z,81.29
2022-12-08T06:54:30.075Z,81.20
2022-12-08T06:56:58.598Z,81.22
2022-12-08T06:59:26.731Z,81.31
2022-12-08T07:01:54.812Z,81.22
2022-12-08T07:04:23.080Z,81.26
2022-12-08T07:06:51.263Z,81.24
2022-12-08T07:09:32.710Z,81.13
2022-12-08T07:12:02.084Z,81.14
2022-12-08T07:14:30.846Z,80.78
2022-12-08T07:16:59.383Z,80.30
2022-12-08T07:19:27.619Z,80.14
2022-12-08T07:21:56.099Z,80.04
2022-12-08T07:24:24.579Z,79.94
2022-12-08T07:26:52.553Z,79.65
2022-12-08T07:29:26.084Z,79.53
2022-12-08T07:31:54.637Z,79.18
2022-12-08T07:34:22.712Z,78.95
2022-12-08T07:36:50.982Z,78.82
2022-12-08T07:39:19.371Z,78.78
2022-12-08T07:41:47.444Z,78.61
2022-12-08T07:44:16.328Z,78.73
2022-12-08T07:46:44.468Z,78.65
2022-12-08T07:49:13.812Z,78.41
2022-12-08T07:51:41.986Z,78.42
2022-12-08T07:54:12.733Z,78.18
2022-12-08T07:56:40.783Z,78.18
2022-12-08T07:59:09.235Z,77.91
2022-12-08T08:01:37.467Z,77.66
2022-12-08T08:04:06.564Z,77.52
2022-12-08T08:06:36.974Z,77.50
2022-12-08T08:09:05.036Z,77.29
2022-12-08T08:11:33.220Z,77.18
2022-12-08T08:14:01.144Z,76.95
2022-12-08T08:16:34.925Z,76.86
2022-12-08T08:19:06.258Z,76.80
2022-12-08T08:21:45.355Z,76.29
2022-12-08T08:24:14.254Z,76.38
2022-12-08T08:26:42.332Z,76.28
2022-12-08T08:29:10.469Z,76.33
2022-12-08T08:31:38.671Z,76.13
2022-12-08T08:34:06.965Z,76.21
2022-12-08T08:36:35.667Z,76.02
2022-12-08T08:39:04.437Z,75.90
2022-12-08T08:41:32.875Z,75.66
2022-12-08T08:44:01.295Z,75.71
2022-12-08T08:46:29.877Z,75.08
2022-12-08T08:48:58.369Z,74.88
2022-12-08T08:51:26.849Z,74.89
2022-12-08T08:53:55.069Z,74.21
2022-12-08T08:56:23.301Z,72.96
2022-12-08T08:58:53.320Z,72.53
2022-12-08T09:01:24.999Z,70.88
2022-12-08T09:03:54.317Z,70.64
2022-12-08T09:06:23.629Z,69.75
2022-12-08T09:08:52.326Z,69.89
2022-12-08T09:11:20.799Z,69.34
2022-12-08T09:13:50.185Z,65.78
2022-12-08T09:16:19.217Z,64.97
2022-12-08T09:18:49.665Z,65.55
2022-12-08T09:21:23.095Z,63.89
2022-12-08T09:23:54.034Z,61.54
2022-12-08T09:26:23.329Z,63.32
2022-12-08T09:28:52.118Z,63.46
2022-12-08T09:31:22.013Z,63.04
2022-12-08T09:33:54.230Z,62.72
2022-12-08T09:36:22.516Z,63.41
2022-12-08T09:38:51.882Z,64.48
2022-12-08T09:41:52.256Z,64.83
2022-12-08T09:44:48.314Z,65.23
2022-12-08T09:47:24.541Z,65.47
2022-12-08T09:50:05.526Z,65.18
2022-12-08T09:52:40.204Z,65.96
2022-12-08T09:55:24.532Z,66.08
2022-12-08T09:58:02.822Z,67.04
2022-12-08T10:00:31.398Z,68.10
2022-12-08T10:03:00.408Z,68.23
2022-12-08T10:05:33.351Z,68.83
2022-12-08T10:08:21.345Z,69.22
2022-12-08T10:11:00.298Z,69.57
2022-12-08T10:13:46.888Z,69.73
2022-12-08T10:16:39.494Z,70.25
2022-12-08T10:19:27.829Z,70.76
2022-12-08T10:22:01.947Z,71.06
2022-12-08T10:24:54.190Z,71.75
2022-12-08T10:27:42.116Z,72.07
2022-12-08T10:30:21.356Z,72.48
2022-12-08T10:32:54.259Z,72.95
2022-12-08T10:35:30.272Z,73.31
2022-12-08T10:38:09.150Z,73.25
2022-12-08T10:40:53.493Z,73.72
2022-12-08T10:43:31.299Z,73.74
2022-12-08T10:46:23.298Z,73.86
2022-12-08T10:49:17.925Z,74.03
2022-12-08T10:51:53.958Z,73.98
2022-12-08T10:54:33.498Z,74.06
2022-12-08T10:57:01.936Z,74.17
2022-12-08T10:59:34.421Z,74.38
2022-12-08T11:02:21.834Z,74.60
2022-12-08T11:05:01.407Z,74.52
2022-12-08T11:07:29.850Z,74.93
2022-12-08T11:09:59.234Z,74.94
2022-12-08T11:12:30.894Z,74.66
2022-12-08T11:15:03.597Z,74.61
2022-12-08T11:17:41.703Z,74.86
2022-12-08T11:20:09.934Z,74.85
2022-12-08T11:22:37.998Z,74.69
2022-12-08T11:25:12.211Z,74.87
2022-12-08T11:27:44.624Z,74.98
2022-12-08T11:30:24.538Z,75.02
2022-12-08T11:33:01.082Z,75.08
2022-12-08T11:35:35.464Z,75.20
2022-12-08T11:38:20.908Z,74.90
2022-12-08T11:41:14.211Z,75.05
2022-12-08T11:44:06.320Z,75.28
2022-12-08T11:46:47.739Z,75.14
2022-12-08T11:49:15.968Z,75.30
2022-12-08T11:51:57.044Z,75.60
2022-12-08T11:54:34.531Z,76.06
2022-12-08T11:57:05.946Z,76.41
2022-12-08T11:59:41.868Z,76.42
2022-12-08T12:02:17.572Z,76.34
2022-12-08T12:04:49.359Z,76.29
2022-12-08T12:07:42.969Z,76.40
2022-12-08T12:10:35.773Z,76.56
2022-12-08T12:13:08.008Z,76.60
2022-12-08T12:16:14.690Z,76.92
2022-12-08T12:18:48.036Z,77.05
2022-12-08T12:21:20.674Z,76.95
2022-12-08T12:24:26.017Z,76.67
2022-12-08T12:27:13.814Z,76.52
2022-12-08T12:29:50.926Z,76.86
2022-12-08T12:32:24.585Z,76.90
2022-12-08T12:34:59.031Z,76.99
2022-12-08T12:37:38.899Z,77.54
2022-12-08T12:40:17.921Z,77.96
2022-12-08T12:43:11.978Z,78.16
2022-12-08T12:45:44.030Z,78.21
2022-12-08T12:48:30.148Z,77.99
2022-12-08T12:50:58.364Z,77.86
2022-12-08T12:53:26.546Z,77.87
2022-12-08T12:55:59.720Z,78.01
2022-12-08T12:58:28.318Z,78.15
2022-12-08T13:01:13.044Z,78.36
2022-12-08T13:03:45.974Z,78.46
2022-12-08T13:06:21.849Z,78.59
2022-12-08T13:08:53.192Z,78.66
2022-12-08T13:11:22.942Z,78.62
2022-12-08T13:14:00.284Z,78.73
2022-12-08T13:16:33.058Z,79.00
2022-12-08T13:19:05.102Z,79.25
2022-12-08T13:21:36.329Z,79.21
2022-12-08T13:24:10.860Z,79.02
2022-12-08T13:26:46.912Z,79.06
2022-12-08T13:29:24.514Z,79.20
2022-12-08T13:31:56.571Z,79.39
2022-12-08T13:34:49.442Z,79.54
2022-12-08T13:37:26.003Z,79.58
2022-12-08T13:40:09.709Z,79.34
2022-12-08T13:43:19.823Z,78.90
2022-12-08T13:46:52.559Z,78.78
2022-12-08T13:53:41.703Z,79.32
2022-12-08T13:57:37.465Z,79.83
2022-12-08T14:00:15.040Z,79.85
2022-12-08T14:02:48.407Z,79.88
2022-12-08T14:05:21.734Z,79.87
2022-12-08T14:07:56.799Z,79.86
2022-12-08T14:10:32.335Z,79.92
2022-12-08T14:13:06.693Z,79.98
2022-12-08T14:15:38.333Z,79.99
2022-12-08T14:18:23.840Z,80.13
2022-12-08T14:21:20.817Z,80.30
2022-12-08T14:23:49.678Z,80.50
2022-12-08T14:26:18.152Z,80.40
2022-12-08T14:28:46.364Z,80.56
2022-12-08T14:31:14.841Z,80.56
2022-12-08T14:33:43.344Z,80.60
2022-12-08T14:36:15.870Z,80.76
2022-12-08T14:38:45.673Z,80.82
2022-12-08T14:41:14.677Z,80.86
2022-12-08T14:43:43.250Z,80.74
2022-12-08T14:46:22.958Z,80.70
2022-12-08T14:48:51.501Z,80.95
2022-12-08T14:51:19.492Z,80.83
2022-12-08T14:53:53.626Z,80.59
2022-12-08T14:56:21.753Z,80.48
2022-12-08T14:59:03.195Z,80.72
2022-12-08T15:01:32.598Z,80.57
2022-12-08T15:04:07.636Z,80.69
2022-12-08T15:06:36.310Z,80.92
2022-12-08T15:09:17.457Z,80.98
2022-12-08T15:11:45.508Z,81.19
2022-12-08T15:14:33.346Z,81.23
2022-12-08T15:17:01.628Z,81.22
2022-12-08T15:19:34.711Z,81.26
2022-12-08T15:22:18.042Z,81.43
2022-12-08T15:24:46.027Z,81.70
2022-12-08T15:27:23.205Z,81.62
2022-12-08T15:29:52.598Z,81.84
2022-12-08T18:37:00.947Z,83.20
2022-12-08T18:39:32.108Z,83.16
2022-12-08T18:42:02.713Z,83.31
2022-12-08T18:44:30.889Z,83.44
2022-12-08T18:46:59.532Z,83.41
2022-12-08T18:49:27.861Z,83.21
2022-12-08T18:51:55.902Z,83.33
2022-12-08T18:54:37.052Z,83.28
2022-12-08T18:57:13.435Z,83.16
2022-12-08T18:59:42.375Z,83.18
2022-12-08T19:02:12.519Z,83.18
2022-12-08T19:04:43.935Z,83.18
2022-12-08T19:07:13.430Z,83.13
2022-12-08T19:09:42.196Z,83.18
2022-12-08T19:12:13.054Z,83.19
2022-12-08T19:14:41.582Z,83.11
2022-12-08T19:17:09.882Z,83.09
2022-12-08T19:19:37.845Z,83.03
2022-12-08T19:22:06.063Z,83.17
2022-12-08T19:24:36.630Z,83.25
2022-12-08T19:27:05.897Z,83.43
2022-12-08T19:29:34.404Z,83.51
2022-12-08T19:32:05.279Z,83.58
2022-12-08T19:34:33.371Z,83.55
2022-12-08T19:37:01.269Z,83.74
2022-12-08T19:39:47.800Z,83.80
2022-12-08T19:42:37.466Z,83.73
2022-12-08T19:45:12.325Z,83.78
2022-12-08T19:47:41.092Z,83.75
2022-12-08T19:50:29.944Z,83.73
2022-12-08T19:52:58.645Z,83.72
2022-12-08T19:55:27.438Z,83.69
2022-12-08T19:57:57.065Z,83.63
2022-12-08T20:00:25.720Z,83.65
2022-12-08T20:02:53.879Z,83.70
2022-12-08T20:05:22.593Z,83.66
2022-12-08T20:07:50.818Z,83.71
2022-12-08T20:10:22.933Z,83.79
2022-12-08T20:12:51.203Z,83.81
2022-12-08T20:15:20.284Z,83.66
2022-12-08T20:17:48.397Z,83.50
2022-12-08T20:20:16.561Z,83.65
2022-12-08T20:22:45.702Z,83.81
2022-12-08T20:25:14.096Z,83.87
2022-12-08T20:27:42.733Z,83.84
2022-12-08T20:30:16.732Z,83.81
2022-12-08T20:32:46.133Z,83.46
2022-12-08T20:35:15.709Z,83.57
2022-12-08T20:37:43.978Z,83.72
2022-12-08T20:40:12.687Z,83.88
2022-12-08T20:42:40.898Z,83.93
2022-12-08T20:45:09.903Z,84.19
2022-12-08T20:47:38.325Z,84.16
2022-12-08T20:50:07.743Z,84.19
2022-12-08T20:52:37.966Z,84.14
2022-12-08T20:55:07.532Z,84.07
2022-12-08T20:57:35.828Z,84.01
2022-12-08T21:00:06.299Z,83.83
2022-12-08T21:02:35.428Z,83.71
2022-12-08T21:05:04.321Z,83.68
2022-12-08T21:07:33.765Z,84.06
2022-12-08T21:10:04.159Z,84.41
2022-12-08T21:12:32.818Z,84.52
2022-12-08T21:15:01.593Z,84.56
2022-12-08T21:17:29.909Z,84.64
2022-12-08T21:19:59.284Z,84.71
2022-12-08T21:22:28.664Z,84.65
2022-12-08T21:24:57.252Z,84.69
2022-12-08T21:27:25.761Z,84.75
2022-12-08T21:29:53.883Z,84.73
2022-12-08T21:32:27.091Z,84.67
2022-12-08T21:34:58.679Z,84.79
2022-12-08T21:37:27.101Z,85.19
2022-12-08T21:39:55.340Z,85.23
2022-12-08T21:42:41.882Z,85.32
2022-12-08T21:45:11.881Z,85.33
2022-12-08T21:47:40.879Z,85.23
2022-12-08T21:50:10.519Z,85.17
2022-12-08T21:52:41.161Z,85.15
2022-12-08T21:55:12.565Z,85.05
2022-12-08T21:57:40.971Z,84.91
2022-12-08T22:00:14.726Z,84.87
2022-12-08T22:02:43.818Z,84.87
2022-12-08T22:05:13.066Z,84.84
2022-12-08T22:07:41.967Z,84.91
2022-12-08T22:10:10.829Z,84.94
2022-12-08T22:12:39.569Z,84.80
2022-12-08T22:15:10.186Z,84.92
2022-12-08T22:17:40.688Z,84.91
2022-12-08T22:20:12.900Z,84.83
2022-12-08T22:22:41.393Z,84.98
2022-12-08T22:25:13.691Z,85.04
2022-12-08T22:27:42.666Z,85.11
2022-12-08T22:30:12.194Z,85.06
2022-12-08T22:32:42.382Z,84.97
2022-12-08T22:35:11.388Z,84.81
2022-12-08T22:37:39.431Z,84.68
2022-12-08T22:40:08.832Z,84.53
2022-12-08T22:42:37.470Z,84.26
2022-12-08T22:45:06.482Z,83.87
2022-12-08T22:47:34.702Z,83.76
2022-12-08T22:50:05.016Z,83.81
2022-12-08T22:52:33.296Z,83.78
2022-12-08T22:55:01.308Z,83.89
2022-12-08T22:57:29.630Z,83.93
2022-12-08T22:59:57.803Z,84.01
2022-12-08T23:02:26.080Z,84.10
2022-12-08T23:04:57.584Z,84.22
2022-12-08T23:07:26.823Z,84.22
2022-12-08T23:09:55.068Z,84.23
2022-12-08T23:12:23.184Z,84.20
2022-12-08T23:14:51.345Z,84.21
2022-12-08T23:17:19.664Z,84.23
2022-12-08T23:19:47.925Z,84.16
2022-12-08T23:22:16.774Z,84.08
2022-12-08T23:24:44.796Z,83.93
2022-12-08T23:27:13.264Z,83.77
2022-12-08T23:29:41.351Z,83.73
2022-12-08T23:32:09.714Z,83.84
2022-12-08T23:34:37.975Z,83.89
2022-12-08T23:37:06.414Z,83.92
2022-12-08T23:39:34.805Z,83.84
2022-12-08T23:42:03.181Z,83.88
2022-12-08T23:44:31.549Z,83.97
2022-12-08T23:47:00.112Z,84.05
2022-12-08T23:49:28.377Z,84.08
2022-12-08T23:51:56.797Z,83.95
2022-12-08T23:54:24.813Z,83.86
2022-12-08T23:56:53.103Z,83.81
2022-12-08T23:59:21.287Z,83.77
